sensor_id;sensor_type;location;lat;lon;timestamp;pressure;altitude;pressure_sealevel;temperature
56286;BMP180;42191;47.562;9.686;2022-10-17T00:00:06;97461.00;;;17.50
56286;BMP180;42191;47.562;9.686;2022-10-17T00:02:33;97463.00;;;17.50
56286;BMP180;42191;47.562;9.686;2022-10-17T00:04:59;97462.00;;;17.50
56286;BMP180;42191;47.562;9.686;2022-10-17T00:07:25;97469.00;;;17.40
56286;BMP180;42191;47.562;9.686;2022-10-17T00:09:51;97464.00;;;17.40
56286;BMP180;42191;47.562;9.686;2022-10-17T00:12:17;97466.00;;;17.40
56286;BMP180;42191;47.562;9.686;2022-10-17T00:14:43;97472.00;;;17.40
56286;BMP180;42191;47.562;9.686;2022-10-17T00:17:09;97476.00;;;17.30
56286;BMP180;42191;47.562;9.686;2022-10-17T00:19:36;97471.00;;;17.30
56286;BMP180;42191;47.562;9.686;2022-10-17T00:22:02;97482.00;;;17.30
56286;BMP180;42191;47.562;9.686;2022-10-17T00:24:30;97479.00;;;17.30
56286;BMP180;42191;47.562;9.686;2022-10-17T00:26:56;97475.00;;;17.20
56286;BMP180;42191;47.562;9.686;2022-10-17T00:29:22;97478.00;;;17.20
56286;BMP180;42191;47.562;9.686;2022-10-17T00:31:48;97462.00;;;17.20
56286;BMP180;42191;47.562;9.686;2022-10-17T00:34:14;97467.00;;;17.20
56286;BMP180;42191;47.562;9.686;2022-10-17T00:36:40;97471.00;;;17.10
56286;BMP180;42191;47.562;9.686;2022-10-17T00:39:07;97472.00;;;17.10
56286;BMP180;42191;47.562;9.686;2022-10-17T00:41:34;97483.00;;;17.10
56286;BMP180;42191;47.562;9.686;2022-10-17T00:44:03;97470.00;;;17.10
56286;BMP180;42191;47.562;9.686;2022-10-17T00:46:32;97475.00;;;17.10
56286;BMP180;42191;47.562;9.686;2022-10-17T00:49:00;97471.00;;;17.10
56286;BMP180;42191;47.562;9.686;2022-10-17T00:51:33;97471.00;;;17.10
56286;BMP180;42191;47.562;9.686;2022-10-17T00:54:00;97469.00;;;17.10
56286;BMP180;42191;47.562;9.686;2022-10-17T00:56:27;97468.00;;;17.00
56286;BMP180;42191;47.562;9.686;2022-10-17T00:58:54;97455.00;;;17.00
56286;BMP180;42191;47.562;9.686;2022-10-17T01:01:20;97458.00;;;17.00
56286;BMP180;42191;47.562;9.686;2022-10-17T01:03:46;97463.00;;;17.00
56286;BMP180;42191;47.562;9.686;2022-10-17T01:06:13;97464.00;;;17.00
56286;BMP180;42191;47.562;9.686;2022-10-17T01:08:39;97463.00;;;16.90
56286;BMP180;42191;47.562;9.686;2022-10-17T01:11:30;97475.00;;;16.90
56286;BMP180;42191;47.562;9.686;2022-10-17T01:19:48;97455.00;;;16.80
56286;BMP180;42191;47.562;9.686;2022-10-17T01:25:52;97465.00;;;16.70
56286;BMP180;42191;47.562;9.686;2022-10-17T01:31:15;97482.00;;;16.60
56286;BMP180;42191;47.562;9.686;2022-10-17T01:33:46;97477.00;;;16.60
56286;BMP180;42191;47.562;9.686;2022-10-17T01:36:35;97465.00;;;16.50
56286;BMP180;42191;47.562;9.686;2022-10-17T01:42:18;97460.00;;;16.50
56286;BMP180;42191;47.562;9.686;2022-10-17T01:45:02;97454.00;;;16.50
56286;BMP180;42191;47.562;9.686;2022-10-17T01:47:31;97456.00;;;16.40
56286;BMP180;42191;47.562;9.686;2022-10-17T01:50:06;97451.00;;;16.40
56286;BMP180;42191;47.562;9.686;2022-10-17T01:52:40;97453.00;;;16.30
56286;BMP180;42191;47.562;9.686;2022-10-17T01:55:15;97448.00;;;16.30
56286;BMP180;42191;47.562;9.686;2022-10-17T01:57:49;97447.00;;;16.20
56286;BMP180;42191;47.562;9.686;2022-10-17T02:00:20;97443.00;;;16.20
56286;BMP180;42191;47.562;9.686;2022-10-17T02:02:48;97452.00;;;16.10
56286;BMP180;42191;47.562;9.686;2022-10-17T02:05:23;97442.00;;;16.10
56286;BMP180;42191;47.562;9.686;2022-10-17T02:07:49;97443.00;;;16.10
56286;BMP180;42191;47.562;9.686;2022-10-17T02:10:28;97444.00;;;16.00
56286;BMP180;42191;47.562;9.686;2022-10-17T02:13:12;97434.00;;;16.00
56286;BMP180;42191;47.562;9.686;2022-10-17T02:16:06;97428.00;;;16.00
56286;BMP180;42191;47.562;9.686;2022-10-17T02:21:58;97427.00;;;16.00
56286;BMP180;42191;47.562;9.686;2022-10-17T02:33:19;97423.00;;;16.00
56286;BMP180;42191;47.562;9.686;2022-10-17T02:35:52;97418.00;;;16.00
56286;BMP180;42191;47.562;9.686;2022-10-17T02:38:21;97424.00;;;16.00
56286;BMP180;42191;47.562;9.686;2022-10-17T02:40:49;97432.00;;;15.90
56286;BMP180;42191;47.562;9.686;2022-10-17T02:43:16;97439.00;;;15.90
56286;BMP180;42191;47.562;9.686;2022-10-17T02:45:42;97429.00;;;15.90
56286;BMP180;42191;47.562;9.686;2022-10-17T02:48:24;97430.00;;;15.90
56286;BMP180;42191;47.562;9.686;2022-10-17T02:51:11;97432.00;;;15.90
56286;BMP180;42191;47.562;9.686;2022-10-17T02:56:31;97435.00;;;15.90
56286;BMP180;42191;47.562;9.686;2022-10-17T02:59:00;97439.00;;;16.00
56286;BMP180;42191;47.562;9.686;2022-10-17T03:01:28;97440.00;;;16.00
56286;BMP180;42191;47.562;9.686;2022-10-17T03:04:10;97450.00;;;16.00
56286;BMP180;42191;47.562;9.686;2022-10-17T03:06:36;97446.00;;;15.90
56286;BMP180;42191;47.562;9.686;2022-10-17T03:09:03;97452.00;;;15.90
56286;BMP180;42191;47.562;9.686;2022-10-17T03:11:30;97456.00;;;15.80
56286;BMP180;42191;47.562;9.686;2022-10-17T03:13:56;97450.00;;;15.80
56286;BMP180;42191;47.562;9.686;2022-10-17T03:16:22;97465.00;;;15.70
56286;BMP180;42191;47.562;9.686;2022-10-17T03:18:48;97468.00;;;15.70
56286;BMP180;42191;47.562;9.686;2022-10-17T03:21:14;97480.00;;;15.70
56286;BMP180;42191;47.562;9.686;2022-10-17T03:23:40;97480.00;;;15.70
56286;BMP180;42191;47.562;9.686;2022-10-17T03:26:07;97497.00;;;15.60
56286;BMP180;42191;47.562;9.686;2022-10-17T03:28:33;97481.00;;;15.70
56286;BMP180;42191;47.562;9.686;2022-10-17T03:31:05;97478.00;;;15.70
56286;BMP180;42191;47.562;9.686;2022-10-17T03:33:31;97490.00;;;15.70
56286;BMP180;42191;47.562;9.686;2022-10-17T03:35:57;97486.00;;;15.60
56286;BMP180;42191;47.562;9.686;2022-10-17T03:38:23;97485.00;;;15.70
56286;BMP180;42191;47.562;9.686;2022-10-17T03:40:56;97477.00;;;15.70
56286;BMP180;42191;47.562;9.686;2022-10-17T03:43:22;97490.00;;;15.60
56286;BMP180;42191;47.562;9.686;2022-10-17T03:45:48;97494.00;;;15.60
56286;BMP180;42191;47.562;9.686;2022-10-17T03:48:14;97493.00;;;15.60
56286;BMP180;42191;47.562;9.686;2022-10-17T03:50:40;97495.00;;;15.50
56286;BMP180;42191;47.562;9.686;2022-10-17T03:53:06;97495.00;;;15.50
56286;BMP180;42191;47.562;9.686;2022-10-17T03:55:32;97496.00;;;15.40
56286;BMP180;42191;47.562;9.686;2022-10-17T03:57:59;97512.00;;;15.40
56286;BMP180;42191;47.562;9.686;2022-10-17T04:00:25;97514.00;;;15.30
56286;BMP180;42191;47.562;9.686;2022-10-17T04:02:51;97515.00;;;15.30
56286;BMP180;42191;47.562;9.686;2022-10-17T04:05:17;97505.00;;;15.30
56286;BMP180;42191;47.562;9.686;2022-10-17T04:07:43;97517.00;;;15.20
56286;BMP180;42191;47.562;9.686;2022-10-17T04:10:09;97516.00;;;15.20
56286;BMP180;42191;47.562;9.686;2022-10-17T04:12:35;97527.00;;;15.20
56286;BMP180;42191;47.562;9.686;2022-10-17T04:15:02;97521.00;;;15.10
56286;BMP180;42191;47.562;9.686;2022-10-17T04:17:30;97524.00;;;15.10
56286;BMP180;42191;47.562;9.686;2022-10-17T04:19:56;97530.00;;;15.10
56286;BMP180;42191;47.562;9.686;2022-10-17T04:22:22;97536.00;;;15.10
56286;BMP180;42191;47.562;9.686;2022-10-17T04:24:48;97537.00;;;15.00
56286;BMP180;42191;47.562;9.686;2022-10-17T04:27:14;97542.00;;;15.00
56286;BMP180;42191;47.562;9.686;2022-10-17T04:29:41;97530.00;;;15.00
56286;BMP180;42191;47.562;9.686;2022-10-17T04:32:07;97543.00;;;14.90
56286;BMP180;42191;47.562;9.686;2022-10-17T04:34:33;97550.00;;;14.90
56286;BMP180;42191;47.562;9.686;2022-10-17T04:36:59;97547.00;;;14.90
56286;BMP180;42191;47.562;9.686;2022-10-17T04:39:25;97545.00;;;14.80
56286;BMP180;42191;47.562;9.686;2022-10-17T04:41:51;97554.00;;;14.80
56286;BMP180;42191;47.562;9.686;2022-10-17T04:44:17;97551.00;;;14.70
56286;BMP180;42191;47.562;9.686;2022-10-17T04:46:45;97549.00;;;14.70
56286;BMP180;42191;47.562;9.686;2022-10-17T04:49:11;97551.00;;;14.60
56286;BMP180;42191;47.562;9.686;2022-10-17T04:51:38;97558.00;;;14.60
56286;BMP180;42191;47.562;9.686;2022-10-17T04:54:04;97559.00;;;14.60
56286;BMP180;42191;47.562;9.686;2022-10-17T04:56:31;97567.00;;;14.50
56286;BMP180;42191;47.562;9.686;2022-10-17T04:58:58;97557.00;;;14.50
56286;BMP180;42191;47.562;9.686;2022-10-17T05:01:27;97557.00;;;14.50
56286;BMP180;42191;47.562;9.686;2022-10-17T05:03:56;97553.00;;;14.50
56286;BMP180;42191;47.562;9.686;2022-10-17T05:06:24;97550.00;;;14.50
56286;BMP180;42191;47.562;9.686;2022-10-17T05:08:50;97546.00;;;14.50
56286;BMP180;42191;47.562;9.686;2022-10-17T05:11:23;97552.00;;;14.40
56286;BMP180;42191;47.562;9.686;2022-10-17T05:13:53;97550.00;;;14.40
56286;BMP180;42191;47.562;9.686;2022-10-17T05:16:19;97545.00;;;14.40
56286;BMP180;42191;47.562;9.686;2022-10-17T05:18:56;97558.00;;;14.40
56286;BMP180;42191;47.562;9.686;2022-10-17T05:21:32;97544.00;;;14.40
56286;BMP180;42191;47.562;9.686;2022-10-17T05:23:58;97550.00;;;14.30
56286;BMP180;42191;47.562;9.686;2022-10-17T05:26:25;97557.00;;;14.30
56286;BMP180;42191;47.562;9.686;2022-10-17T05:28:51;97556.00;;;14.30
56286;BMP180;42191;47.562;9.686;2022-10-17T05:31:18;97567.00;;;14.30
56286;BMP180;42191;47.562;9.686;2022-10-17T05:33:44;97573.00;;;14.30
56286;BMP180;42191;47.562;9.686;2022-10-17T05:36:10;97576.00;;;14.40
56286;BMP180;42191;47.562;9.686;2022-10-17T05:38:37;97569.00;;;14.40
56286;BMP180;42191;47.562;9.686;2022-10-17T05:41:04;97565.00;;;14.40
56286;BMP180;42191;47.562;9.686;2022-10-17T05:43:31;97565.00;;;14.50
56286;BMP180;42191;47.562;9.686;2022-10-17T05:45:57;97568.00;;;14.50
56286;BMP180;42191;47.562;9.686;2022-10-17T05:48:24;97570.00;;;14.50
56286;BMP180;42191;47.562;9.686;2022-10-17T05:51:00;97579.00;;;14.40
56286;BMP180;42191;47.562;9.686;2022-10-17T05:53:28;97578.00;;;14.40
56286;BMP180;42191;47.562;9.686;2022-10-17T05:55:56;97574.00;;;14.40
56286;BMP180;42191;47.562;9.686;2022-10-17T05:58:23;97576.00;;;14.40
56286;BMP180;42191;47.562;9.686;2022-10-17T06:00:49;97586.00;;;14.40
56286;BMP180;42191;47.562;9.686;2022-10-17T06:03:15;97604.00;;;14.40
56286;BMP180;42191;47.562;9.686;2022-10-17T06:05:41;97586.00;;;14.40
56286;BMP180;42191;47.562;9.686;2022-10-17T06:08:07;97591.00;;;14.40
56286;BMP180;42191;47.562;9.686;2022-10-17T06:10:33;97594.00;;;14.40
56286;BMP180;42191;47.562;9.686;2022-10-17T06:13:00;97590.00;;;14.40
56286;BMP180;42191;47.562;9.686;2022-10-17T06:15:26;97593.00;;;14.40
56286;BMP180;42191;47.562;9.686;2022-10-17T06:17:52;97592.00;;;14.40
56286;BMP180;42191;47.562;9.686;2022-10-17T06:20:18;97587.00;;;14.40
56286;BMP180;42191;47.562;9.686;2022-10-17T06:22:44;97590.00;;;14.50
56286;BMP180;42191;47.562;9.686;2022-10-17T06:25:10;97590.00;;;14.40
56286;BMP180;42191;47.562;9.686;2022-10-17T06:27:37;97592.00;;;14.50
56286;BMP180;42191;47.562;9.686;2022-10-17T06:30:03;97599.00;;;14.50
56286;BMP180;42191;47.562;9.686;2022-10-17T06:32:29;97597.00;;;14.50
56286;BMP180;42191;47.562;9.686;2022-10-17T06:34:56;97609.00;;;14.60
56286;BMP180;42191;47.562;9.686;2022-10-17T06:37:22;97611.00;;;14.60
56286;BMP180;42191;47.562;9.686;2022-10-17T06:39:48;97617.00;;;14.70
56286;BMP180;42191;47.562;9.686;2022-10-17T06:42:14;97620.00;;;14.70
56286;BMP180;42191;47.562;9.686;2022-10-17T06:44:40;97624.00;;;14.80
56286;BMP180;42191;47.562;9.686;2022-10-17T06:47:06;97624.00;;;14.80
56286;BMP180;42191;47.562;9.686;2022-10-17T06:49:32;97622.00;;;14.90
56286;BMP180;42191;47.562;9.686;2022-10-17T06:51:59;97618.00;;;14.90
56286;BMP180;42191;47.562;9.686;2022-10-17T06:54:25;97623.00;;;15.00
56286;BMP180;42191;47.562;9.686;2022-10-17T06:56:52;97623.00;;;15.10
56286;BMP180;42191;47.562;9.686;2022-10-17T06:59:19;97627.00;;;15.10
56286;BMP180;42191;47.562;9.686;2022-10-17T07:01:45;97621.00;;;15.20
56286;BMP180;42191;47.562;9.686;2022-10-17T07:04:11;97632.00;;;15.30
56286;BMP180;42191;47.562;9.686;2022-10-17T07:06:37;97625.00;;;15.30
56286;BMP180;42191;47.562;9.686;2022-10-17T07:09:04;97635.00;;;15.40
56286;BMP180;42191;47.562;9.686;2022-10-17T07:11:32;97626.00;;;15.50
56286;BMP180;42191;47.562;9.686;2022-10-17T07:14:00;97638.00;;;15.50
56286;BMP180;42191;47.562;9.686;2022-10-17T07:16:26;97642.00;;;15.70
56286;BMP180;42191;47.562;9.686;2022-10-17T07:18:53;97638.00;;;15.70
56286;BMP180;42191;47.562;9.686;2022-10-17T07:21:19;97647.00;;;15.80
56286;BMP180;42191;47.562;9.686;2022-10-17T07:23:45;97653.00;;;16.00
56286;BMP180;42191;47.562;9.686;2022-10-17T07:26:14;97667.00;;;16.10
56286;BMP180;42191;47.562;9.686;2022-10-17T07:28:42;97667.00;;;16.20
56286;BMP180;42191;47.562;9.686;2022-10-17T07:31:11;97666.00;;;16.30
56286;BMP180;42191;47.562;9.686;2022-10-17T07:33:38;97666.00;;;16.30
56286;BMP180;42191;47.562;9.686;2022-10-17T07:36:05;97665.00;;;16.50
56286;BMP180;42191;47.562;9.686;2022-10-17T07:38:31;97669.00;;;16.60
56286;BMP180;42191;47.562;9.686;2022-10-17T07:41:00;97674.00;;;16.60
56286;BMP180;42191;47.562;9.686;2022-10-17T07:43:26;97672.00;;;16.70
56286;BMP180;42191;47.562;9.686;2022-10-17T07:45:53;97673.00;;;16.80
56286;BMP180;42191;47.562;9.686;2022-10-17T07:48:21;97673.00;;;16.90
56286;BMP180;42191;47.562;9.686;2022-10-17T07:50:48;97681.00;;;17.00
56286;BMP180;42191;47.562;9.686;2022-10-17T07:53:14;97689.00;;;17.10
56286;BMP180;42191;47.562;9.686;2022-10-17T07:55:41;97676.00;;;17.20
56286;BMP180;42191;47.562;9.686;2022-10-17T07:58:08;97682.00;;;17.20
56286;BMP180;42191;47.562;9.686;2022-10-17T08:00:35;97698.00;;;17.30
56286;BMP180;42191;47.562;9.686;2022-10-17T08:03:01;97696.00;;;17.40
56286;BMP180;42191;47.562;9.686;2022-10-17T08:05:29;97701.00;;;17.50
56286;BMP180;42191;47.562;9.686;2022-10-17T08:07:55;97703.00;;;17.50
56286;BMP180;42191;47.562;9.686;2022-10-17T08:10:21;97699.00;;;17.60
56286;BMP180;42191;47.562;9.686;2022-10-17T08:12:53;97709.00;;;17.70
56286;BMP180;42191;47.562;9.686;2022-10-17T08:15:19;97702.00;;;17.70
56286;BMP180;42191;47.562;9.686;2022-10-17T08:17:45;97714.00;;;17.80
56286;BMP180;42191;47.562;9.686;2022-10-17T08:20:12;97705.00;;;17.80
56286;BMP180;42191;47.562;9.686;2022-10-17T08:22:38;97711.00;;;17.90
56286;BMP180;42191;47.562;9.686;2022-10-17T08:25:04;97711.00;;;17.90
56286;BMP180;42191;47.562;9.686;2022-10-17T08:27:32;97703.00;;;18.00
56286;BMP180;42191;47.562;9.686;2022-10-17T08:29:59;97712.00;;;18.00
56286;BMP180;42191;47.562;9.686;2022-10-17T08:32:27;97710.00;;;18.10
56286;BMP180;42191;47.562;9.686;2022-10-17T08:34:54;97714.00;;;18.10
56286;BMP180;42191;47.562;9.686;2022-10-17T08:37:22;97705.00;;;18.20
56286;BMP180;42191;47.562;9.686;2022-10-17T08:39:48;97717.00;;;18.20
56286;BMP180;42191;47.562;9.686;2022-10-17T08:47:35;97710.00;;;18.40
56286;BMP180;42191;47.562;9.686;2022-10-17T08:50:09;97715.00;;;18.40
56286;BMP180;42191;47.562;9.686;2022-10-17T08:52:41;97720.00;;;18.50
56286;BMP180;42191;47.562;9.686;2022-10-17T08:55:59;97718.00;;;18.50
56286;BMP180;42191;47.562;9.686;2022-10-17T08:58:28;97714.00;;;18.60
56286;BMP180;42191;47.562;9.686;2022-10-17T09:03:52;97718.00;;;18.70
56286;BMP180;42191;47.562;9.686;2022-10-17T09:06:32;97720.00;;;18.70
56286;BMP180;42191;47.562;9.686;2022-10-17T09:12:16;97730.00;;;18.80
56286;BMP180;42191;47.562;9.686;2022-10-17T09:17:46;97738.00;;;18.90
56286;BMP180;42191;47.562;9.686;2022-10-17T09:20:32;97738.00;;;18.90
56286;BMP180;42191;47.562;9.686;2022-10-17T09:23:17;97730.00;;;18.90
56286;BMP180;42191;47.562;9.686;2022-10-17T09:25:47;97736.00;;;19.00
56286;BMP180;42191;47.562;9.686;2022-10-17T09:30:59;97744.00;;;19.10
56286;BMP180;42191;47.562;9.686;2022-10-17T09:33:33;97745.00;;;19.10
56286;BMP180;42191;47.562;9.686;2022-10-17T09:36:03;97751.00;;;19.20
56286;BMP180;42191;47.562;9.686;2022-10-17T09:38:52;97753.00;;;19.30
56286;BMP180;42191;47.562;9.686;2022-10-17T09:41:22;97753.00;;;19.30
56286;BMP180;42191;47.562;9.686;2022-10-17T09:43:51;97758.00;;;19.30
56286;BMP180;42191;47.562;9.686;2022-10-17T09:49:01;97752.00;;;19.40
56286;BMP180;42191;47.562;9.686;2022-10-17T09:51:30;97768.00;;;19.40
56286;BMP180;42191;47.562;9.686;2022-10-17T09:54:01;97766.00;;;19.40
56286;BMP180;42191;47.562;9.686;2022-10-17T09:56:28;97769.00;;;19.50
56286;BMP180;42191;47.562;9.686;2022-10-17T09:58:58;97765.00;;;19.60
56286;BMP180;42191;47.562;9.686;2022-10-17T10:01:27;97772.00;;;19.60
56286;BMP180;42191;47.562;9.686;2022-10-17T10:04:15;97781.00;;;19.70
56286;BMP180;42191;47.562;9.686;2022-10-17T10:07:04;97775.00;;;19.70
56286;BMP180;42191;47.562;9.686;2022-10-17T10:09:32;97777.00;;;19.80
56286;BMP180;42191;47.562;9.686;2022-10-17T10:12:19;97770.00;;;19.80
56286;BMP180;42191;47.562;9.686;2022-10-17T10:14:46;97775.00;;;19.90
56286;BMP180;42191;47.562;9.686;2022-10-17T10:17:41;97777.00;;;20.00
56286;BMP180;42191;47.562;9.686;2022-10-17T10:20:31;97774.00;;;20.10
56286;BMP180;42191;47.562;9.686;2022-10-17T10:23:12;97776.00;;;20.20
56286;BMP180;42191;47.562;9.686;2022-10-17T10:26:00;97789.00;;;20.20
56286;BMP180;42191;47.562;9.686;2022-10-17T10:28:34;97786.00;;;20.30
56286;BMP180;42191;47.562;9.686;2022-10-17T10:31:06;97781.00;;;20.30
56286;BMP180;42191;47.562;9.686;2022-10-17T10:33:35;97780.00;;;20.40
56286;BMP180;42191;47.562;9.686;2022-10-17T10:36:05;97780.00;;;20.50
56286;BMP180;42191;47.562;9.686;2022-10-17T10:38:33;97782.00;;;20.50
56286;BMP180;42191;47.562;9.686;2022-10-17T10:41:06;97787.00;;;20.60
56286;BMP180;42191;47.562;9.686;2022-10-17T10:45:59;97786.00;;;20.70
56286;BMP180;42191;47.562;9.686;2022-10-17T10:48:36;97790.00;;;20.80
56286;BMP180;42191;47.562;9.686;2022-10-17T10:51:15;97791.00;;;20.90
56286;BMP180;42191;47.562;9.686;2022-10-17T10:53:43;97786.00;;;21.00
56286;BMP180;42191;47.562;9.686;2022-10-17T10:56:20;97778.00;;;21.10
56286;BMP180;42191;47.562;9.686;2022-10-17T10:59:12;97783.00;;;21.20
56286;BMP180;42191;47.562;9.686;2022-10-17T11:07:18;97768.00;;;21.70
56286;BMP180;42191;47.562;9.686;2022-10-17T11:13:08;97770.00;;;22.00
56286;BMP180;42191;47.562;9.686;2022-10-17T11:15:50;97777.00;;;22.20
56286;BMP180;42191;47.562;9.686;2022-10-17T11:24:27;97761.00;;;22.50
56286;BMP180;42191;47.562;9.686;2022-10-17T11:27:00;97768.00;;;22.60
56286;BMP180;42191;47.562;9.686;2022-10-17T11:29:28;97753.00;;;22.70
56286;BMP180;42191;47.562;9.686;2022-10-17T11:31:59;97762.00;;;22.80
56286;BMP180;42191;47.562;9.686;2022-10-17T11:34:28;97752.00;;;22.90
56286;BMP180;42191;47.562;9.686;2022-10-17T11:37:04;97748.00;;;22.90
56286;BMP180;42191;47.562;9.686;2022-10-17T11:39:39;97745.00;;;23.00
56286;BMP180;42191;47.562;9.686;2022-10-17T11:42:11;97751.00;;;23.00
56286;BMP180;42191;47.562;9.686;2022-10-17T11:44:40;97753.00;;;23.10
56286;BMP180;42191;47.562;9.686;2022-10-17T11:49:51;97760.00;;;23.10
56286;BMP180;42191;47.562;9.686;2022-10-17T11:55:22;97754.00;;;23.20
56286;BMP180;42191;47.562;9.686;2022-10-17T12:06:51;97749.00;;;23.20
56286;BMP180;42191;47.562;9.686;2022-10-17T12:09:45;97745.00;;;23.30
56286;BMP180;42191;47.562;9.686;2022-10-17T12:12:27;97734.00;;;23.40
56286;BMP180;42191;47.562;9.686;2022-10-17T12:15:26;97728.00;;;23.40
56286;BMP180;42191;47.562;9.686;2022-10-17T12:17:57;97736.00;;;23.50
56286;BMP180;42191;47.562;9.686;2022-10-17T12:20:31;97735.00;;;23.50
56286;BMP180;42191;47.562;9.686;2022-10-17T12:25:54;97730.00;;;23.50
56286;BMP180;42191;47.562;9.686;2022-10-17T12:28:24;97734.00;;;23.50
56286;BMP180;42191;47.562;9.686;2022-10-17T12:31:07;97731.00;;;23.50
56286;BMP180;42191;47.562;9.686;2022-10-17T12:39:40;97722.00;;;23.60
56286;BMP180;42191;47.562;9.686;2022-10-17T12:49:50;97704.00;;;23.90
56286;BMP180;42191;47.562;9.686;2022-10-17T12:57:43;97702.00;;;24.00
56286;BMP180;42191;47.562;9.686;2022-10-17T13:02:45;97703.00;;;24.10
56286;BMP180;42191;47.562;9.686;2022-10-17T13:05:22;97703.00;;;24.10
56286;BMP180;42191;47.562;9.686;2022-10-17T13:07:49;97708.00;;;24.10
56286;BMP180;42191;47.562;9.686;2022-10-17T13:10:25;97704.00;;;24.00
56286;BMP180;42191;47.562;9.686;2022-10-17T13:13:14;97708.00;;;24.00
56286;BMP180;42191;47.562;9.686;2022-10-17T13:15:49;97697.00;;;23.90
56286;BMP180;42191;47.562;9.686;2022-10-17T13:18:21;97698.00;;;23.90
56286;BMP180;42191;47.562;9.686;2022-10-17T13:21:17;97706.00;;;23.90
56286;BMP180;42191;47.562;9.686;2022-10-17T13:23:43;97703.00;;;23.90
56286;BMP180;42191;47.562;9.686;2022-10-17T13:26:12;97695.00;;;24.00
56286;BMP180;42191;47.562;9.686;2022-10-17T13:28:39;97705.00;;;24.00
56286;BMP180;42191;47.562;9.686;2022-10-17T13:31:06;97699.00;;;24.10
56286;BMP180;42191;47.562;9.686;2022-10-17T13:33:35;97702.00;;;24.20
56286;BMP180;42191;47.562;9.686;2022-10-17T13:36:05;97697.00;;;24.50
56286;BMP180;42191;47.562;9.686;2022-10-17T13:38:33;97698.00;;;24.90
56286;BMP180;42191;47.562;9.686;2022-10-17T13:41:01;97706.00;;;25.30
56286;BMP180;42191;47.562;9.686;2022-10-17T13:43:29;97704.00;;;25.60
56286;BMP180;42191;47.562;9.686;2022-10-17T13:45:59;97706.00;;;26.00
56286;BMP180;42191;47.562;9.686;2022-10-17T13:48:31;97698.00;;;26.30
56286;BMP180;42191;47.562;9.686;2022-10-17T13:50:59;97700.00;;;26.70
56286;BMP180;42191;47.562;9.686;2022-10-17T13:53:34;97706.00;;;26.90
56286;BMP180;42191;47.562;9.686;2022-10-17T13:56:16;97712.00;;;27.20
56286;BMP180;42191;47.562;9.686;2022-10-17T13:58:50;97703.00;;;27.60
56286;BMP180;42191;47.562;9.686;2022-10-17T14:01:18;97708.00;;;27.90
56286;BMP180;42191;47.562;9.686;2022-10-17T14:03:46;97712.00;;;28.20
56286;BMP180;42191;47.562;9.686;2022-10-17T14:06:20;97707.00;;;28.50
56286;BMP180;42191;47.562;9.686;2022-10-17T14:09:05;97708.00;;;28.80
56286;BMP180;42191;47.562;9.686;2022-10-17T14:11:35;97710.00;;;29.20
56286;BMP180;42191;47.562;9.686;2022-10-17T14:14:03;97703.00;;;29.60
56286;BMP180;42191;47.562;9.686;2022-10-17T14:16:40;97709.00;;;30.00
56286;BMP180;42191;47.562;9.686;2022-10-17T14:21:48;97716.00;;;30.60
56286;BMP180;42191;47.562;9.686;2022-10-17T14:24:34;97703.00;;;30.80
56286;BMP180;42191;47.562;9.686;2022-10-17T14:27:00;97714.00;;;31.00
56286;BMP180;42191;47.562;9.686;2022-10-17T14:29:29;97703.00;;;31.20
56286;BMP180;42191;47.562;9.686;2022-10-17T14:32:06;97716.00;;;31.30
56286;BMP180;42191;47.562;9.686;2022-10-17T14:34:38;97711.00;;;31.40
56286;BMP180;42191;47.562;9.686;2022-10-17T14:37:19;97716.00;;;31.30
56286;BMP180;42191;47.562;9.686;2022-10-17T14:39:50;97709.00;;;31.20
56286;BMP180;42191;47.562;9.686;2022-10-17T14:42:18;97710.00;;;31.20
56286;BMP180;42191;47.562;9.686;2022-10-17T14:44:48;97712.00;;;31.30
56286;BMP180;42191;47.562;9.686;2022-10-17T14:47:23;97705.00;;;31.40
56286;BMP180;42191;47.562;9.686;2022-10-17T14:50:01;97706.00;;;31.50
56286;BMP180;42191;47.562;9.686;2022-10-17T14:52:29;97713.00;;;31.50
56286;BMP180;42191;47.562;9.686;2022-10-17T14:54:57;97710.00;;;31.50
56286;BMP180;42191;47.562;9.686;2022-10-17T14:57:27;97719.00;;;31.50
56286;BMP180;42191;47.562;9.686;2022-10-17T14:59:56;97722.00;;;31.50
56286;BMP180;42191;47.562;9.686;2022-10-17T15:02:24;97717.00;;;31.60
56286;BMP180;42191;47.562;9.686;2022-10-17T15:04:51;97720.00;;;31.60
56286;BMP180;42191;47.562;9.686;2022-10-17T15:07:18;97717.00;;;31.70
56286;BMP180;42191;47.562;9.686;2022-10-17T15:09:47;97725.00;;;31.80
56286;BMP180;42191;47.562;9.686;2022-10-17T15:12:17;97718.00;;;31.80
56286;BMP180;42191;47.562;9.686;2022-10-17T15:14:44;97719.00;;;31.80
56286;BMP180;42191;47.562;9.686;2022-10-17T15:17:28;97717.00;;;31.80
56286;BMP180;42191;47.562;9.686;2022-10-17T15:19:55;97718.00;;;31.80
56286;BMP180;42191;47.562;9.686;2022-10-17T15:22:22;97729.00;;;31.80
56286;BMP180;42191;47.562;9.686;2022-10-17T15:24:49;97725.00;;;31.80
56286;BMP180;42191;47.562;9.686;2022-10-17T15:27:16;97727.00;;;31.80
56286;BMP180;42191;47.562;9.686;2022-10-17T15:29:44;97724.00;;;31.90
56286;BMP180;42191;47.562;9.686;2022-10-17T15:32:10;97732.00;;;32.00
56286;BMP180;42191;47.562;9.686;2022-10-17T15:34:36;97722.00;;;32.00
56286;BMP180;42191;47.562;9.686;2022-10-17T15:37:03;97723.00;;;32.00
56286;BMP180;42191;47.562;9.686;2022-10-17T15:39:30;97727.00;;;32.00
56286;BMP180;42191;47.562;9.686;2022-10-17T15:41:56;97724.00;;;32.00
56286;BMP180;42191;47.562;9.686;2022-10-17T15:44:23;97726.00;;;32.00
56286;BMP180;42191;47.562;9.686;2022-10-17T15:46:49;97726.00;;;32.00
56286;BMP180;42191;47.562;9.686;2022-10-17T15:49:17;97723.00;;;32.00
56286;BMP180;42191;47.562;9.686;2022-10-17T15:51:45;97723.00;;;32.00
56286;BMP180;42191;47.562;9.686;2022-10-17T15:54:11;97724.00;;;31.90
56286;BMP180;42191;47.562;9.686;2022-10-17T15:56:39;97726.00;;;31.90
56286;BMP180;42191;47.562;9.686;2022-10-17T15:59:11;97733.00;;;31.80
56286;BMP180;42191;47.562;9.686;2022-10-17T16:01:38;97729.00;;;31.70
56286;BMP180;42191;47.562;9.686;2022-10-17T16:04:05;97742.00;;;31.60
56286;BMP180;42191;47.562;9.686;2022-10-17T16:06:31;97740.00;;;31.40
56286;BMP180;42191;47.562;9.686;2022-10-17T16:08:57;97738.00;;;31.20
56286;BMP180;42191;47.562;9.686;2022-10-17T16:11:40;97738.00;;;30.80
56286;BMP180;42191;47.562;9.686;2022-10-17T16:14:10;97742.00;;;30.50